sensor_id;sensor_type;location;lat;lon;timestamp;P1;durP1;ratioP1;P2;durP2;ratioP2
25111;SDS011;13092;51.996;4.458;2023-02-10T00:01:39;38.07;;;33.97;;
25111;SDS011;13092;51.996;4.458;2023-02-10T00:04:07;43.53;;;36.50;;
25111;SDS011;13092;51.996;4.458;2023-02-10T00:06:37;38.30;;;34.30;;
25111;SDS011;13092;51.996;4.458;2023-02-10T00:09:09;36.97;;;33.23;;
25111;SDS011;13092;51.996;4.458;2023-02-10T00:11:39;37.17;;;33.23;;
25111;SDS011;13092;51.996;4.458;2023-02-10T00:14:27;37.87;;;33.87;;
25111;SDS011;13092;51.996;4.458;2023-02-10T00:16:56;41.17;;;34.27;;
25111;SDS011;13092;51.996;4.458;2023-02-10T00:19:26;37.67;;;33.60;;
25111;SDS011;13092;51.996;4.458;2023-02-10T00:21:55;38.47;;;34.47;;
25111;SDS011;13092;51.996;4.458;2023-02-10T00:24:25;39.30;;;33.33;;
25111;SDS011;13092;51.996;4.458;2023-02-10T00:26:53;38.97;;;34.40;;
25111;SDS011;13092;51.996;4.458;2023-02-10T00:29:21;37.87;;;33.97;;
25111;SDS011;13092;51.996;4.458;2023-02-10T00:31:49;43.77;;;34.77;;
25111;SDS011;13092;51.996;4.458;2023-02-10T00:34:21;38.70;;;34.67;;
25111;SDS011;13092;51.996;4.458;2023-02-10T00:36:49;39.53;;;35.27;;
25111;SDS011;13092;51.996;4.458;2023-02-10T00:39:17;41.83;;;35.43;;
25111;SDS011;13092;51.996;4.458;2023-02-10T00:41:47;43.03;;;35.30;;
25111;SDS011;13092;51.996;4.458;2023-02-10T00:44:15;38.63;;;34.10;;
25111;SDS011;13092;51.996;4.458;2023-02-10T00:46:43;42.63;;;36.17;;
25111;SDS011;13092;51.996;4.458;2023-02-10T00:49:11;38.53;;;34.37;;
25111;SDS011;13092;51.996;4.458;2023-02-10T00:51:39;42.73;;;36.67;;
25111;SDS011;13092;51.996;4.458;2023-02-10T00:54:08;44.93;;;35.37;;
25111;SDS011;13092;51.996;4.458;2023-02-10T00:56:37;42.13;;;35.53;;
25111;SDS011;13092;51.996;4.458;2023-02-10T00:59:08;44.00;;;35.90;;
25111;SDS011;13092;51.996;4.458;2023-02-10T01:01:36;43.77;;;36.53;;
25111;SDS011;13092;51.996;4.458;2023-02-10T01:04:04;39.83;;;35.00;;
25111;SDS011;13092;51.996;4.458;2023-02-10T01:06:33;40.00;;;35.10;;
25111;SDS011;13092;51.996;4.458;2023-02-10T01:09:02;45.10;;;35.73;;
25111;SDS011;13092;51.996;4.458;2023-02-10T01:11:30;43.40;;;36.10;;
25111;SDS011;13092;51.996;4.458;2023-02-10T01:13:58;44.07;;;36.10;;
25111;SDS011;13092;51.996;4.458;2023-02-10T01:16:28;39.20;;;34.97;;
25111;SDS011;13092;51.996;4.458;2023-02-10T01:18:57;42.63;;;36.03;;
25111;SDS011;13092;51.996;4.458;2023-02-10T01:21:27;54.17;;;39.40;;
25111;SDS011;13092;51.996;4.458;2023-02-10T01:23:55;54.20;;;38.93;;
25111;SDS011;13092;51.996;4.458;2023-02-10T01:26:23;41.23;;;36.77;;
25111;SDS011;13092;51.996;4.458;2023-02-10T01:28:52;44.27;;;36.70;;
25111;SDS011;13092;51.996;4.458;2023-02-10T01:31:20;45.97;;;37.57;;
25111;SDS011;13092;51.996;4.458;2023-02-10T01:33:51;49.50;;;39.10;;
25111;SDS011;13092;51.996;4.458;2023-02-10T01:36:21;41.37;;;36.60;;
25111;SDS011;13092;51.996;4.458;2023-02-10T01:38:51;51.13;;;40.00;;
25111;SDS011;13092;51.996;4.458;2023-02-10T01:41:20;53.70;;;40.03;;
25111;SDS011;13092;51.996;4.458;2023-02-10T01:43:53;35.63;;;31.80;;
25111;SDS011;13092;51.996;4.458;2023-02-10T01:46:26;42.50;;;36.07;;
25111;SDS011;13092;51.996;4.458;2023-02-10T01:48:57;42.83;;;36.40;;
25111;SDS011;13092;51.996;4.458;2023-02-10T01:51:31;48.47;;;38.37;;
25111;SDS011;13092;51.996;4.458;2023-02-10T01:54:05;42.73;;;36.33;;
25111;SDS011;13092;51.996;4.458;2023-02-10T01:56:34;46.63;;;39.10;;
25111;SDS011;13092;51.996;4.458;2023-02-10T01:59:02;40.27;;;36.00;;
25111;SDS011;13092;51.996;4.458;2023-02-10T02:01:31;41.23;;;35.63;;
25111;SDS011;13092;51.996;4.458;2023-02-10T02:04:00;49.67;;;37.13;;
25111;SDS011;13092;51.996;4.458;2023-02-10T02:06:29;44.13;;;36.23;;
25111;SDS011;13092;51.996;4.458;2023-02-10T02:08:58;45.87;;;36.63;;
25111;SDS011;13092;51.996;4.458;2023-02-10T02:11:27;45.80;;;36.60;;
25111;SDS011;13092;51.996;4.458;2023-02-10T02:14:08;39.27;;;35.03;;
25111;SDS011;13092;51.996;4.458;2023-02-10T02:16:50;38.83;;;34.77;;
25111;SDS011;13092;51.996;4.458;2023-02-10T02:19:34;41.63;;;35.97;;
25111;SDS011;13092;51.996;4.458;2023-02-10T02:22:21;42.50;;;37.03;;
25111;SDS011;13092;51.996;4.458;2023-02-10T02:25:09;43.87;;;36.63;;
25111;SDS011;13092;51.996;4.458;2023-02-10T02:27:59;46.33;;;38.03;;
25111;SDS011;13092;51.996;4.458;2023-02-10T02:33:48;40.47;;;36.10;;
25111;SDS011;13092;51.996;4.458;2023-02-10T02:36:20;40.63;;;36.10;;
25111;SDS011;13092;51.996;4.458;2023-02-10T02:38:51;43.17;;;35.80;;
25111;SDS011;13092;51.996;4.458;2023-02-10T02:41:25;40.17;;;35.80;;
25111;SDS011;13092;51.996;4.458;2023-02-10T02:43:57;44.67;;;36.97;;
25111;SDS011;13092;51.996;4.458;2023-02-10T02:46:32;49.43;;;37.67;;
25111;SDS011;13092;51.996;4.458;2023-02-10T02:49:09;43.20;;;36.60;;
25111;SDS011;13092;51.996;4.458;2023-02-10T02:51:48;39.97;;;34.60;;
25111;SDS011;13092;51.996;4.458;2023-02-10T02:54:21;42.77;;;35.80;;
25111;SDS011;13092;51.996;4.458;2023-02-10T02:56:54;43.03;;;36.23;;
25111;SDS011;13092;51.996;4.458;2023-02-10T02:59:31;41.13;;;36.40;;
25111;SDS011;13092;51.996;4.458;2023-02-10T03:02:03;42.33;;;36.87;;
25111;SDS011;13092;51.996;4.458;2023-02-10T03:04:36;40.53;;;35.77;;
25111;SDS011;13092;51.996;4.458;2023-02-10T03:07:05;40.03;;;34.77;;
25111;SDS011;13092;51.996;4.458;2023-02-10T03:09:33;39.40;;;35.30;;
25111;SDS011;13092;51.996;4.458;2023-02-10T03:12:05;45.10;;;34.50;;
25111;SDS011;13092;51.996;4.458;2023-02-10T03:14:33;38.73;;;34.47;;
25111;SDS011;13092;51.996;4.458;2023-02-10T03:17:03;43.43;;;35.07;;
25111;SDS011;13092;51.996;4.458;2023-02-10T03:19:31;38.97;;;33.43;;
25111;SDS011;13092;51.996;4.458;2023-02-10T03:22:03;42.13;;;34.33;;
25111;SDS011;13092;51.996;4.458;2023-02-10T03:24:31;42.87;;;35.00;;
25111;SDS011;13092;51.996;4.458;2023-02-10T03:26:59;45.23;;;34.53;;
25111;SDS011;13092;51.996;4.458;2023-02-10T03:29:28;43.23;;;33.30;;
25111;SDS011;13092;51.996;4.458;2023-02-10T03:31:56;43.73;;;34.70;;
25111;SDS011;13092;51.996;4.458;2023-02-10T03:34:28;41.43;;;34.40;;
25111;SDS011;13092;51.996;4.458;2023-02-10T03:36:56;39.13;;;33.93;;
25111;SDS011;13092;51.996;4.458;2023-02-10T03:39:26;37.50;;;33.57;;
25111;SDS011;13092;51.996;4.458;2023-02-10T03:41:54;44.00;;;34.73;;
25111;SDS011;13092;51.996;4.458;2023-02-10T03:44:23;40.93;;;34.00;;
25111;SDS011;13092;51.996;4.458;2023-02-10T03:46:51;46.70;;;35.30;;
25111;SDS011;13092;51.996;4.458;2023-02-10T03:49:19;40.57;;;34.83;;
25111;SDS011;13092;51.996;4.458;2023-02-10T03:51:48;45.40;;;34.23;;
25111;SDS011;13092;51.996;4.458;2023-02-10T03:54:16;40.27;;;35.63;;
25111;SDS011;13092;51.996;4.458;2023-02-10T03:56:46;48.40;;;36.93;;
25111;SDS011;13092;51.996;4.458;2023-02-10T03:59:14;44.67;;;35.30;;
25111;SDS011;13092;51.996;4.458;2023-02-10T04:01:42;47.10;;;35.80;;
25111;SDS011;13092;51.996;4.458;2023-02-10T04:04:10;46.67;;;36.37;;
25111;SDS011;13092;51.996;4.458;2023-02-10T04:06:38;45.90;;;36.83;;
25111;SDS011;13092;51.996;4.458;2023-02-10T04:09:06;51.53;;;36.90;;
25111;SDS011;13092;51.996;4.458;2023-02-10T04:11:35;47.80;;;37.80;;
25111;SDS011;13092;51.996;4.458;2023-02-10T04:14:04;48.80;;;37.70;;
25111;SDS011;13092;51.996;4.458;2023-02-10T04:16:32;50.53;;;38.43;;
25111;SDS011;13092;51.996;4.458;2023-02-10T04:19:00;52.43;;;38.50;;
25111;SDS011;13092;51.996;4.458;2023-02-10T04:21:28;57.97;;;40.03;;
25111;SDS011;13092;51.996;4.458;2023-02-10T04:23:57;56.93;;;39.00;;
25111;SDS011;13092;51.996;4.458;2023-02-10T04:26:25;49.23;;;40.23;;
25111;SDS011;13092;51.996;4.458;2023-02-10T04:28:53;59.00;;;40.30;;
25111;SDS011;13092;51.996;4.458;2023-02-10T04:31:22;57.30;;;39.83;;
25111;SDS011;13092;51.996;4.458;2023-02-10T04:33:54;59.47;;;39.63;;
25111;SDS011;13092;51.996;4.458;2023-02-10T04:36:22;58.87;;;40.83;;
25111;SDS011;13092;51.996;4.458;2023-02-10T04:38:50;55.73;;;41.63;;
25111;SDS011;13092;51.996;4.458;2023-02-10T04:41:18;62.30;;;41.63;;
25111;SDS011;13092;51.996;4.458;2023-02-10T04:43:46;63.70;;;42.70;;
25111;SDS011;13092;51.996;4.458;2023-02-10T04:46:20;67.23;;;42.27;;
25111;SDS011;13092;51.996;4.458;2023-02-10T04:48:53;59.73;;;42.43;;
25111;SDS011;13092;51.996;4.458;2023-02-10T04:51:21;58.93;;;40.97;;
25111;SDS011;13092;51.996;4.458;2023-02-10T04:53:49;63.80;;;42.63;;
25111;SDS011;13092;51.996;4.458;2023-02-10T04:56:19;63.80;;;42.87;;
25111;SDS011;13092;51.996;4.458;2023-02-10T04:58:50;70.37;;;45.60;;
25111;SDS011;13092;51.996;4.458;2023-02-10T05:01:18;60.43;;;42.53;;
25111;SDS011;13092;51.996;4.458;2023-02-10T05:03:46;60.57;;;43.07;;
25111;SDS011;13092;51.996;4.458;2023-02-10T05:06:16;66.77;;;43.93;;
25111;SDS011;13092;51.996;4.458;2023-02-10T05:08:44;76.30;;;44.23;;
25111;SDS011;13092;51.996;4.458;2023-02-10T05:11:13;69.77;;;44.57;;
25111;SDS011;13092;51.996;4.458;2023-02-10T05:13:42;69.33;;;43.23;;
25111;SDS011;13092;51.996;4.458;2023-02-10T05:16:11;68.20;;;42.73;;
25111;SDS011;13092;51.996;4.458;2023-02-10T05:18:40;60.87;;;42.07;;
25111;SDS011;13092;51.996;4.458;2023-02-10T05:21:09;70.10;;;43.97;;
25111;SDS011;13092;51.996;4.458;2023-02-10T05:23:41;68.80;;;42.60;;
25111;SDS011;13092;51.996;4.458;2023-02-10T05:26:09;59.73;;;41.20;;
25111;SDS011;13092;51.996;4.458;2023-02-10T05:28:37;63.70;;;42.97;;
25111;SDS011;13092;51.996;4.458;2023-02-10T05:31:05;59.77;;;41.43;;
25111;SDS011;13092;51.996;4.458;2023-02-10T05:33:34;58.30;;;42.70;;
25111;SDS011;13092;51.996;4.458;2023-02-10T05:36:03;68.70;;;45.50;;
25111;SDS011;13092;51.996;4.458;2023-02-10T05:38:31;78.00;;;43.80;;
25111;SDS011;13092;51.996;4.458;2023-02-10T05:41:01;65.00;;;41.87;;
25111;SDS011;13092;51.996;4.458;2023-02-10T05:43:29;64.00;;;41.07;;
25111;SDS011;13092;51.996;4.458;2023-02-10T05:46:02;55.23;;;40.37;;
25111;SDS011;13092;51.996;4.458;2023-02-10T05:48:31;61.83;;;41.93;;
25111;SDS011;13092;51.996;4.458;2023-02-10T05:50:59;63.97;;;40.87;;
25111;SDS011;13092;51.996;4.458;2023-02-10T05:53:27;54.93;;;39.47;;
25111;SDS011;13092;51.996;4.458;2023-02-10T05:55:57;66.10;;;40.47;;
25111;SDS011;13092;51.996;4.458;2023-02-10T05:58:27;59.53;;;41.03;;
25111;SDS011;13092;51.996;4.458;2023-02-10T06:00:58;51.07;;;39.33;;
25111;SDS011;13092;51.996;4.458;2023-02-10T06:03:27;52.00;;;38.70;;
25111;SDS011;13092;51.996;4.458;2023-02-10T06:05:55;46.80;;;37.93;;
25111;SDS011;13092;51.996;4.458;2023-02-10T06:08:23;49.67;;;37.50;;
25111;SDS011;13092;51.996;4.458;2023-02-10T06:10:58;53.47;;;38.37;;
25111;SDS011;13092;51.996;4.458;2023-02-10T06:13:27;46.53;;;37.70;;
25111;SDS011;13092;51.996;4.458;2023-02-10T06:15:55;49.87;;;38.17;;
25111;SDS011;13092;51.996;4.458;2023-02-10T06:18:27;48.23;;;38.30;;
25111;SDS011;13092;51.996;4.458;2023-02-10T06:20:56;51.23;;;39.27;;
25111;SDS011;13092;51.996;4.458;2023-02-10T06:23:24;42.97;;;36.07;;
25111;SDS011;13092;51.996;4.458;2023-02-10T06:25:53;41.00;;;35.67;;
25111;SDS011;13092;51.996;4.458;2023-02-10T06:28:21;46.17;;;35.50;;
25111;SDS011;13092;51.996;4.458;2023-02-10T06:30:51;40.23;;;35.10;;
25111;SDS011;13092;51.996;4.458;2023-02-10T06:33:19;43.27;;;34.63;;
25111;SDS011;13092;51.996;4.458;2023-02-10T06:35:48;41.77;;;34.17;;
25111;SDS011;13092;51.996;4.458;2023-02-10T06:38:16;40.93;;;34.77;;
25111;SDS011;13092;51.996;4.458;2023-02-10T06:40:44;37.43;;;33.43;;
25111;SDS011;13092;51.996;4.458;2023-02-10T06:43:13;39.40;;;34.00;;
25111;SDS011;13092;51.996;4.458;2023-02-10T06:45:41;38.10;;;34.00;;
25111;SDS011;13092;51.996;4.458;2023-02-10T06:48:10;39.20;;;32.77;;
25111;SDS011;13092;51.996;4.458;2023-02-10T06:50:38;43.47;;;35.17;;
25111;SDS011;13092;51.996;4.458;2023-02-10T06:53:06;39.70;;;34.53;;
25111;SDS011;13092;51.996;4.458;2023-02-10T06:55:34;38.23;;;34.07;;
25111;SDS011;13092;51.996;4.458;2023-02-10T06:58:05;42.97;;;34.03;;
25111;SDS011;13092;51.996;4.458;2023-02-10T07:00:33;40.37;;;33.97;;
25111;SDS011;13092;51.996;4.458;2023-02-10T07:03:01;36.50;;;32.40;;
25111;SDS011;13092;51.996;4.458;2023-02-10T07:05:31;39.03;;;32.97;;
25111;SDS011;13092;51.996;4.458;2023-02-10T07:08:02;39.90;;;34.03;;
25111;SDS011;13092;51.996;4.458;2023-02-10T07:10:34;38.97;;;34.77;;
25111;SDS011;13092;51.996;4.458;2023-02-10T07:13:02;43.83;;;34.93;;
25111;SDS011;13092;51.996;4.458;2023-02-10T07:15:31;40.40;;;35.00;;
25111;SDS011;13092;51.996;4.458;2023-02-10T07:17:59;40.17;;;34.37;;
25111;SDS011;13092;51.996;4.458;2023-02-10T07:20:27;38.27;;;34.23;;
25111;SDS011;13092;51.996;4.458;2023-02-10T07:22:57;40.20;;;34.73;;
25111;SDS011;13092;51.996;4.458;2023-02-10T07:25:25;40.70;;;34.67;;
25111;SDS011;13092;51.996;4.458;2023-02-10T07:27:53;39.03;;;34.17;;
25111;SDS011;13092;51.996;4.458;2023-02-10T07:30:21;37.80;;;33.67;;
25111;SDS011;13092;51.996;4.458;2023-02-10T07:32:49;43.37;;;34.53;;
25111;SDS011;13092;51.996;4.458;2023-02-10T07:35:18;38.30;;;34.23;;
25111;SDS011;13092;51.996;4.458;2023-02-10T07:37:48;38.93;;;33.93;;
25111;SDS011;13092;51.996;4.458;2023-02-10T07:40:18;40.87;;;34.50;;
25111;SDS011;13092;51.996;4.458;2023-02-10T07:42:48;39.23;;;33.83;;
25111;SDS011;13092;51.996;4.458;2023-02-10T07:45:16;38.90;;;34.70;;
25111;SDS011;13092;51.996;4.458;2023-02-10T07:47:44;38.33;;;34.33;;
25111;SDS011;13092;51.996;4.458;2023-02-10T07:50:12;40.00;;;34.53;;
25111;SDS011;13092;51.996;4.458;2023-02-10T07:52:40;39.17;;;35.00;;
25111;SDS011;13092;51.996;4.458;2023-02-10T07:55:09;37.07;;;33.27;;
25111;SDS011;13092;51.996;4.458;2023-02-10T07:57:39;38.10;;;33.93;;
25111;SDS011;13092;51.996;4.458;2023-02-10T08:00:08;37.90;;;33.80;;
25111;SDS011;13092;51.996;4.458;2023-02-10T08:02:38;38.73;;;34.50;;
25111;SDS011;13092;51.996;4.458;2023-02-10T08:05:09;36.87;;;33.03;;
25111;SDS011;13092;51.996;4.458;2023-02-10T08:07:37;39.37;;;33.80;;
25111;SDS011;13092;51.996;4.458;2023-02-10T08:10:05;36.93;;;33.13;;
25111;SDS011;13092;51.996;4.458;2023-02-10T08:12:34;37.57;;;33.50;;
25111;SDS011;13092;51.996;4.458;2023-02-10T08:15:04;36.27;;;32.50;;
25111;SDS011;13092;51.996;4.458;2023-02-10T08:17:33;37.93;;;33.83;;
25111;SDS011;13092;51.996;4.458;2023-02-10T08:20:03;37.80;;;33.30;;
25111;SDS011;13092;51.996;4.458;2023-02-10T08:22:32;39.23;;;33.87;;
25111;SDS011;13092;51.996;4.458;2023-02-10T08:25:01;37.43;;;33.43;;
25111;SDS011;13092;51.996;4.458;2023-02-10T08:27:29;40.57;;;35.13;;
25111;SDS011;13092;51.996;4.458;2023-02-10T08:29:58;37.50;;;33.40;;
25111;SDS011;13092;51.996;4.458;2023-02-10T08:32:28;36.93;;;32.93;;
25111;SDS011;13092;51.996;4.458;2023-02-10T08:34:56;39.47;;;34.53;;
25111;SDS011;13092;51.996;4.458;2023-02-10T08:37:26;39.17;;;33.33;;
25111;SDS011;13092;51.996;4.458;2023-02-10T08:39:54;42.13;;;34.20;;
25111;SDS011;13092;51.996;4.458;2023-02-10T08:42:22;41.13;;;34.07;;
25111;SDS011;13092;51.996;4.458;2023-02-10T08:44:50;38.23;;;33.33;;
25111;SDS011;13092;51.996;4.458;2023-02-10T08:47:18;40.27;;;34.27;;
25111;SDS011;13092;51.996;4.458;2023-02-10T08:49:48;39.50;;;33.90;;
25111;SDS011;13092;51.996;4.458;2023-02-10T08:52:16;41.20;;;34.40;;
25111;SDS011;13092;51.996;4.458;2023-02-10T08:54:47;40.27;;;34.73;;
25111;SDS011;13092;51.996;4.458;2023-02-10T08:57:15;42.23;;;33.77;;
25111;SDS011;13092;51.996;4.458;2023-02-10T08:59:43;43.77;;;35.73;;
25111;SDS011;13092;51.996;4.458;2023-02-10T09:02:11;42.10;;;35.93;;
25111;SDS011;13092;51.996;4.458;2023-02-10T09:04:40;42.60;;;34.00;;
25111;SDS011;13092;51.996;4.458;2023-02-10T09:07:10;43.53;;;35.70;;
25111;SDS011;13092;51.996;4.458;2023-02-10T09:09:41;48.60;;;35.67;;
25111;SDS011;13092;51.996;4.458;2023-02-10T09:12:11;45.43;;;37.00;;
25111;SDS011;13092;51.996;4.458;2023-02-10T09:14:40;47.17;;;35.53;;
25111;SDS011;13092;51.996;4.458;2023-02-10T09:17:09;55.27;;;36.77;;
25111;SDS011;13092;51.996;4.458;2023-02-10T09:19:37;44.80;;;35.43;;
25111;SDS011;13092;51.996;4.458;2023-02-10T09:22:07;41.67;;;34.70;;
25111;SDS011;13092;51.996;4.458;2023-02-10T09:24:37;45.63;;;34.80;;
25111;SDS011;13092;51.996;4.458;2023-02-10T09:27:05;41.57;;;34.27;;
25111;SDS011;13092;51.996;4.458;2023-02-10T09:29:33;38.53;;;34.40;;
25111;SDS011;13092;51.996;4.458;2023-02-10T09:32:01;39.63;;;34.07;;
25111;SDS011;13092;51.996;4.458;2023-02-10T09:34:29;38.40;;;32.80;;
25111;SDS011;13092;51.996;4.458;2023-02-10T09:36:58;40.20;;;34.47;;
25111;SDS011;13092;51.996;4.458;2023-02-10T09:39:30;39.97;;;34.03;;
25111;SDS011;13092;51.996;4.458;2023-02-10T09:42:01;37.87;;;33.77;;
25111;SDS011;13092;51.996;4.458;2023-02-10T09:44:37;37.03;;;32.53;;
25111;SDS011;13092;51.996;4.458;2023-02-10T09:47:20;37.47;;;32.80;;
25111;SDS011;13092;51.996;4.458;2023-02-10T09:52:52;41.23;;;34.10;;
25111;SDS011;13092;51.996;4.458;2023-02-10T09:55:34;37.17;;;33.33;;
25111;SDS011;13092;51.996;4.458;2023-02-10T09:58:08;36.87;;;32.97;;
25111;SDS011;13092;51.996;4.458;2023-02-10T10:00:42;36.87;;;32.90;;
25111;SDS011;13092;51.996;4.458;2023-02-10T10:03:13;36.47;;;32.57;;
25111;SDS011;13092;51.996;4.458;2023-02-10T10:05:45;37.33;;;33.10;;
25111;SDS011;13092;51.996;4.458;2023-02-10T10:08:23;38.87;;;33.03;;
25111;SDS011;13092;51.996;4.458;2023-02-10T10:10:56;38.50;;;32.23;;
25111;SDS011;13092;51.996;4.458;2023-02-10T10:13:29;38.53;;;33.40;;
25111;SDS011;13092;51.996;4.458;2023-02-10T10:16:03;39.40;;;34.30;;
25111;SDS011;13092;51.996;4.458;2023-02-10T10:18:43;37.10;;;33.13;;
25111;SDS011;13092;51.996;4.458;2023-02-10T10:21:26;39.90;;;33.93;;
25111;SDS011;13092;51.996;4.458;2023-02-10T10:24:03;35.43;;;31.93;;
25111;SDS011;13092;51.996;4.458;2023-02-10T10:26:47;36.30;;;32.60;;
25111;SDS011;13092;51.996;4.458;2023-02-10T10:29:25;36.53;;;32.57;;
25111;SDS011;13092;51.996;4.458;2023-02-10T10:32:02;36.63;;;32.37;;
25111;SDS011;13092;51.996;4.458;2023-02-10T10:34:51;36.43;;;32.50;;
25111;SDS011;13092;51.996;4.458;2023-02-10T10:37:21;37.17;;;33.47;;
25111;SDS011;13092;51.996;4.458;2023-02-10T10:39:51;37.87;;;33.70;;
25111;SDS011;13092;51.996;4.458;2023-02-10T10:42:25;36.53;;;32.83;;
25111;SDS011;13092;51.996;4.458;2023-02-10T10:44:58;35.70;;;32.23;;
25111;SDS011;13092;51.996;4.458;2023-02-10T10:47:38;37.17;;;33.13;;
25111;SDS011;13092;51.996;4.458;2023-02-10T10:50:11;37.43;;;33.50;;
25111;SDS011;13092;51.996;4.458;2023-02-10T10:52:41;37.87;;;33.97;;
25111;SDS011;13092;51.996;4.458;2023-02-10T10:55:12;38.37;;;34.47;;
25111;SDS011;13092;51.996;4.458;2023-02-10T10:57:48;38.57;;;34.40;;
25111;SDS011;13092;51.996;4.458;2023-02-10T11:00:23;38.97;;;34.87;;
25111;SDS011;13092;51.996;4.458;2023-02-10T11:02:56;38.60;;;34.60;;
25111;SDS011;13092;51.996;4.458;2023-02-10T11:05:27;39.00;;;34.90;;
25111;SDS011;13092;51.996;4.458;2023-02-10T11:08:01;40.03;;;34.83;;
25111;SDS011;13092;51.996;4.458;2023-02-10T11:10:35;37.10;;;33.10;;
25111;SDS011;13092;51.996;4.458;2023-02-10T11:13:17;41.87;;;35.23;;
25111;SDS011;13092;51.996;4.458;2023-02-10T11:15:50;37.40;;;33.47;;
25111;SDS011;13092;51.996;4.458;2023-02-10T11:18:27;36.63;;;33.03;;
25111;SDS011;13092;51.996;4.458;2023-02-10T11:20:57;40.27;;;34.33;;
25111;SDS011;13092;51.996;4.458;2023-02-10T11:23:27;39.23;;;34.90;;
25111;SDS011;13092;51.996;4.458;2023-02-10T11:25:58;38.83;;;35.03;;
25111;SDS011;13092;51.996;4.458;2023-02-10T11:28:30;40.00;;;35.70;;
25111;SDS011;13092;51.996;4.458;2023-02-10T11:31:03;37.90;;;34.13;;
25111;SDS011;13092;51.996;4.458;2023-02-10T11:33:34;37.93;;;34.37;;
25111;SDS011;13092;51.996;4.458;2023-02-10T11:36:04;39.70;;;35.40;;
25111;SDS011;13092;51.996;4.458;2023-02-10T11:38:35;38.23;;;34.43;;
25111;SDS011;13092;51.996;4.458;2023-02-10T11:41:04;41.53;;;34.07;;
25111;SDS011;13092;51.996;4.458;2023-02-10T11:43:39;38.70;;;34.57;;
25111;SDS011;13092;51.996;4.458;2023-02-10T11:46:16;40.10;;;34.73;;
25111;SDS011;13092;51.996;4.458;2023-02-10T11:48:52;36.60;;;32.87;;
25111;SDS011;13092;51.996;4.458;2023-02-10T11:51:22;37.10;;;33.43;;
25111;SDS011;13092;51.996;4.458;2023-02-10T11:53:51;36.47;;;32.87;;
25111;SDS011;13092;51.996;4.458;2023-02-10T11:56:20;37.80;;;33.53;;
25111;SDS011;13092;51.996;4.458;2023-02-10T11:59:15;36.40;;;32.20;;
25111;SDS011;13092;51.996;4.458;2023-02-10T12:01:53;35.77;;;32.17;;
25111;SDS011;13092;51.996;4.458;2023-02-10T12:04:30;35.90;;;32.43;;
25111;SDS011;13092;51.996;4.458;2023-02-10T12:07:23;35.50;;;31.57;;
25111;SDS011;13092;51.996;4.458;2023-02-10T12:09:59;33.20;;;29.87;;
25111;SDS011;13092;51.996;4.458;2023-02-10T12:12:37;35.07;;;31.27;;
25111;SDS011;13092;51.996;4.458;2023-02-10T12:15:15;31.43;;;28.23;;
25111;SDS011;13092;51.996;4.458;2023-02-10T12:17:59;30.90;;;27.77;;
25111;SDS011;13092;51.996;4.458;2023-02-10T12:20:42;31.73;;;28.43;;
25111;SDS011;13092;51.996;4.458;2023-02-10T12:26:14;27.75;;;24.95;;
25111;SDS011;13092;51.996;4.458;2023-02-10T12:28:53;29.52;;;26.35;;
25111;SDS011;13092;51.996;4.458;2023-02-10T12:31:34;29.30;;;26.30;;
25111;SDS011;13092;51.996;4.458;2023-02-10T12:34:16;27.67;;;24.52;;
25111;SDS011;13092;51.996;4.458;2023-02-10T12:37:00;23.40;;;20.73;;
25111;SDS011;13092;51.996;4.458;2023-02-10T12:39:39;21.67;;;19.45;;
25111;SDS011;13092;51.996;4.458;2023-02-10T12:42:19;24.92;;;22.45;;
25111;SDS011;13092;51.996;4.458;2023-02-10T12:45:04;25.57;;;23.20;;
25111;SDS011;13092;51.996;4.458;2023-02-10T12:47:44;27.57;;;24.87;;
25111;SDS011;13092;51.996;4.458;2023-02-10T12:50:21;28.13;;;25.38;;
25111;SDS011;13092;51.996;4.458;2023-02-10T12:52:58;29.88;;;26.83;;
25111;SDS011;13092;51.996;4.458;2023-02-10T12:55:34;31.07;;;27.77;;
25111;SDS011;13092;51.996;4.458;2023-02-10T12:58:12;29.00;;;26.08;;
25111;SDS011;13092;51.996;4.458;2023-02-10T13:00:45;31.25;;;28.25;;
25111;SDS011;13092;51.996;4.458;2023-02-10T13:03:20;30.65;;;27.77;;
25111;SDS011;13092;51.996;4.458;2023-02-10T13:05:57;30.70;;;27.70;;
25111;SDS011;13092;51.996;4.458;2023-02-10T13:08:32;31.93;;;28.60;;
25111;SDS011;13092;51.996;4.458;2023-02-10T13:11:07;31.38;;;28.08;;
25111;SDS011;13092;51.996;4.458;2023-02-10T13:13:39;31.30;;;28.10;;
25111;SDS011;13092;51.996;4.458;2023-02-10T13:16:10;31.92;;;28.88;;
25111;SDS011;13092;51.996;4.458;2023-02-10T13:18:50;35.45;;;29.58;;
25111;SDS011;13092;51.996;4.458;2023-02-10T13:21:24;32.22;;;29.08;;
25111;SDS011;13092;51.996;4.458;2023-02-10T13:23:58;32.78;;;29.58;;
25111;SDS011;13092;51.996;4.458;2023-02-10T13:26:47;32.45;;;29.48;;
25111;SDS011;13092;51.996;4.458;2023-02-10T13:29:25;33.45;;;30.55;;
25111;SDS011;13092;51.996;4.458;2023-02-10T13:32:09;34.53;;;31.05;;
25111;SDS011;13092;51.996;4.458;2023-02-10T13:34:54;34.83;;;31.63;;
25111;SDS011;13092;51.996;4.458;2023-02-10T13:37:27;34.72;;;31.45;;
25111;SDS011;13092;51.996;4.458;2023-02-10T13:39:59;35.47;;;32.25;;
25111;SDS011;13092;51.996;4.458;2023-02-10T13:42:30;35.20;;;31.80;;
25111;SDS011;13092;51.996;4.458;2023-02-10T13:45:03;36.83;;;33.30;;
25111;SDS011;13092;51.996;4.458;2023-02-10T13:47:34;36.03;;;32.55;;
25111;SDS011;13092;51.996;4.458;2023-02-10T13:50:16;36.53;;;33.03;;
25111;SDS011;13092;51.996;4.458;2023-02-10T13:52:56;37.08;;;33.67;;
25111;SDS011;13092;51.996;4.458;2023-02-10T13:55:37;36.53;;;33.10;;
25111;SDS011;13092;51.996;4.458;2023-02-10T14:01:32;37.83;;;34.40;;
25111;SDS011;13092;51.996;4.458;2023-02-10T14:04:03;38.60;;;34.75;;
25111;SDS011;13092;51.996;4.458;2023-02-10T14:06:36;38.63;;;35.03;;
25111;SDS011;13092;51.996;4.458;2023-02-10T14:09:16;39.25;;;35.55;;
25111;SDS011;13092;51.996;4.458;2023-02-10T14:11:46;41.63;;;37.45;;
25111;SDS011;13092;51.996;4.458;2023-02-10T14:14:19;45.63;;;40.63;;
25111;SDS011;13092;51.996;4.458;2023-02-10T14:17:01;49.42;;;44.20;;
25111;SDS011;13092;51.996;4.458;2023-02-10T14:19:35;49.80;;;44.53;;
25111;SDS011;13092;51.996;4.458;2023-02-10T14:22:06;49.78;;;44.58;;
25111;SDS011;13092;51.996;4.458;2023-02-10T14:24:48;51.10;;;45.05;;
25111;SDS011;13092;51.996;4.458;2023-02-10T14:27:18;49.70;;;44.70;;
25111;SDS011;13092;51.996;4.458;2023-02-10T14:29:48;48.10;;;43.17;;
25111;SDS011;13092;51.996;4.458;2023-02-10T14:32:18;46.67;;;42.17;;
25111;SDS011;13092;51.996;4.458;2023-02-10T14:34:53;46.28;;;41.50;;
25111;SDS011;13092;51.996;4.458;2023-02-10T14:37:25;44.53;;;40.28;;
25111;SDS011;13092;51.996;4.458;2023-02-10T14:39:54;43.50;;;39.20;;
25111;SDS011;13092;51.996;4.458;2023-02-10T14:42:25;45.08;;;40.05;;
25111;SDS011;13092;51.996;4.458;2023-02-10T14:44:56;43.22;;;39.03;;
25111;SDS011;13092;51.996;4.458;2023-02-10T14:47:27;43.45;;;39.03;;
25111;SDS011;13092;51.996;4.458;2023-02-10T14:49:59;43.00;;;38.75;;
25111;SDS011;13092;51.996;4.458;2023-02-10T14:52:30;42.75;;;38.72;;
25111;SDS011;13092;51.996;4.458;2023-02-10T14:57:51;46.13;;;41.42;;
25111;SDS011;13092;51.996;4.458;2023-02-10T15:00:19;47.97;;;43.30;;
25111;SDS011;13092;51.996;4.458;2023-02-10T15:02:48;46.10;;;41.58;;